sensor_id;sensor_type;location;lat;lon;timestamp;P1;durP1;ratioP1;P2;durP2;ratioP2
16037;SDS011;8123;50.906;6.172;2022-10-16T00:01:25;2.33;;;1.70;;
16037;SDS011;8123;50.906;6.172;2022-10-16T00:03:53;10.33;;;1.60;;
16037;SDS011;8123;50.906;6.172;2022-10-16T00:06:21;3.50;;;1.83;;
16037;SDS011;8123;50.906;6.172;2022-10-16T00:08:47;1.90;;;1.80;;
16037;SDS011;8123;50.906;6.172;2022-10-16T00:11:15;5.37;;;2.00;;
16037;SDS011;8123;50.906;6.172;2022-10-16T00:13:43;2.43;;;2.30;;
16037;SDS011;8123;50.906;6.172;2022-10-16T00:16:10;2.10;;;2.00;;
16037;SDS011;8123;50.906;6.172;2022-10-16T00:18:37;4.70;;;1.80;;
16037;SDS011;8123;50.906;6.172;2022-10-16T00:21:05;1.93;;;1.83;;
16037;SDS011;8123;50.906;6.172;2022-10-16T00:23:32;2.00;;;1.80;;
16037;SDS011;8123;50.906;6.172;2022-10-16T00:25:59;2.30;;;1.60;;
16037;SDS011;8123;50.906;6.172;2022-10-16T00:28:28;8.33;;;2.07;;
16037;SDS011;8123;50.906;6.172;2022-10-16T00:30:54;1.90;;;1.80;;
16037;SDS011;8123;50.906;6.172;2022-10-16T00:33:20;2.20;;;1.67;;
16037;SDS011;8123;50.906;6.172;2022-10-16T00:35:46;1.57;;;1.57;;
16037;SDS011;8123;50.906;6.172;2022-10-16T00:38:12;4.07;;;1.90;;
16037;SDS011;8123;50.906;6.172;2022-10-16T00:40:37;2.27;;;1.70;;
16037;SDS011;8123;50.906;6.172;2022-10-16T00:43:07;1.97;;;1.67;;
16037;SDS011;8123;50.906;6.172;2022-10-16T00:45:37;2.50;;;2.00;;
16037;SDS011;8123;50.906;6.172;2022-10-16T00:48:03;1.77;;;1.77;;
16037;SDS011;8123;50.906;6.172;2022-10-16T00:52:58;1.60;;;1.50;;
16037;SDS011;8123;50.906;6.172;2022-10-16T00:55:26;1.90;;;1.80;;
16037;SDS011;8123;50.906;6.172;2022-10-16T00:57:54;2.60;;;1.30;;
16037;SDS011;8123;50.906;6.172;2022-10-16T01:00:23;1.60;;;1.60;;
16037;SDS011;8123;50.906;6.172;2022-10-16T01:02:58;1.90;;;1.60;;
16037;SDS011;8123;50.906;6.172;2022-10-16T01:05:34;2.13;;;1.93;;
16037;SDS011;8123;50.906;6.172;2022-10-16T01:08:12;2.47;;;1.90;;
16037;SDS011;8123;50.906;6.172;2022-10-16T01:13:18;7.47;;;1.40;;
16037;SDS011;8123;50.906;6.172;2022-10-16T01:18:44;1.63;;;1.53;;
16037;SDS011;8123;50.906;6.172;2022-10-16T01:24:02;6.03;;;1.40;;
16037;SDS011;8123;50.906;6.172;2022-10-16T01:29:20;2.37;;;1.33;;
16037;SDS011;8123;50.906;6.172;2022-10-16T01:31:57;1.50;;;1.10;;
16037;SDS011;8123;50.906;6.172;2022-10-16T01:34:37;3.33;;;1.30;;
16037;SDS011;8123;50.906;6.172;2022-10-16T01:37:09;5.40;;;1.30;;
16037;SDS011;8123;50.906;6.172;2022-10-16T01:39:39;1.10;;;1.10;;
16037;SDS011;8123;50.906;6.172;2022-10-16T01:42:30;1.30;;;1.30;;
16037;SDS011;8123;50.906;6.172;2022-10-16T01:45:00;3.00;;;1.40;;
16037;SDS011;8123;50.906;6.172;2022-10-16T01:47:28;1.90;;;1.60;;
16037;SDS011;8123;50.906;6.172;2022-10-16T01:49:56;4.00;;;1.20;;
16037;SDS011;8123;50.906;6.172;2022-10-16T01:52:24;3.33;;;0.90;;
16037;SDS011;8123;50.906;6.172;2022-10-16T01:54:52;1.63;;;1.00;;
16037;SDS011;8123;50.906;6.172;2022-10-16T01:57:20;1.10;;;1.10;;
16037;SDS011;8123;50.906;6.172;2022-10-16T01:59:50;1.10;;;1.10;;
16037;SDS011;8123;50.906;6.172;2022-10-16T02:02:19;1.97;;;1.33;;
16037;SDS011;8123;50.906;6.172;2022-10-16T02:04:48;1.30;;;1.30;;
16037;SDS011;8123;50.906;6.172;2022-10-16T02:07:18;1.10;;;1.10;;
16037;SDS011;8123;50.906;6.172;2022-10-16T02:09:44;1.70;;;1.30;;
16037;SDS011;8123;50.906;6.172;2022-10-16T02:12:12;0.90;;;0.90;;
16037;SDS011;8123;50.906;6.172;2022-10-16T02:14:38;1.30;;;1.20;;
16037;SDS011;8123;50.906;6.172;2022-10-16T02:17:10;1.17;;;1.17;;
16037;SDS011;8123;50.906;6.172;2022-10-16T02:19:37;3.23;;;1.03;;
16037;SDS011;8123;50.906;6.172;2022-10-16T02:22:03;1.33;;;1.23;;
16037;SDS011;8123;50.906;6.172;2022-10-16T02:24:33;1.60;;;1.50;;
16037;SDS011;8123;50.906;6.172;2022-10-16T02:29:44;1.63;;;1.40;;
16037;SDS011;8123;50.906;6.172;2022-10-16T02:32:15;1.30;;;1.30;;
16037;SDS011;8123;50.906;6.172;2022-10-16T02:34:44;1.20;;;1.20;;
16037;SDS011;8123;50.906;6.172;2022-10-16T02:37:12;1.57;;;1.47;;
16037;SDS011;8123;50.906;6.172;2022-10-16T02:39:38;1.47;;;1.47;;
16037;SDS011;8123;50.906;6.172;2022-10-16T02:42:09;1.20;;;1.07;;
16037;SDS011;8123;50.906;6.172;2022-10-16T02:44:36;1.27;;;1.17;;
16037;SDS011;8123;50.906;6.172;2022-10-16T02:47:02;1.20;;;1.20;;
16037;SDS011;8123;50.906;6.172;2022-10-16T02:49:27;1.43;;;1.20;;
16037;SDS011;8123;50.906;6.172;2022-10-16T02:51:53;8.13;;;1.27;;
16037;SDS011;8123;50.906;6.172;2022-10-16T02:54:18;1.20;;;1.20;;
16037;SDS011;8123;50.906;6.172;2022-10-16T02:56:44;5.90;;;1.43;;
16037;SDS011;8123;50.906;6.172;2022-10-16T02:59:10;7.20;;;1.27;;
16037;SDS011;8123;50.906;6.172;2022-10-16T03:01:35;1.53;;;1.43;;
16037;SDS011;8123;50.906;6.172;2022-10-16T03:04:01;1.13;;;1.13;;
16037;SDS011;8123;50.906;6.172;2022-10-16T03:06:27;1.47;;;1.47;;
16037;SDS011;8123;50.906;6.172;2022-10-16T03:08:52;5.43;;;1.27;;
16037;SDS011;8123;50.906;6.172;2022-10-16T03:11:18;1.40;;;1.30;;
16037;SDS011;8123;50.906;6.172;2022-10-16T03:13:43;1.27;;;1.17;;
16037;SDS011;8123;50.906;6.172;2022-10-16T03:16:09;3.53;;;1.30;;
16037;SDS011;8123;50.906;6.172;2022-10-16T03:18:35;14.67;;;1.43;;
16037;SDS011;8123;50.906;6.172;2022-10-16T03:21:00;1.83;;;1.57;;
16037;SDS011;8123;50.906;6.172;2022-10-16T03:23:26;5.10;;;1.60;;
16037;SDS011;8123;50.906;6.172;2022-10-16T03:25:52;6.20;;;2.50;;
16037;SDS011;8123;50.906;6.172;2022-10-16T03:28:18;1.60;;;1.60;;
16037;SDS011;8123;50.906;6.172;2022-10-16T03:30:44;3.90;;;1.53;;
16037;SDS011;8123;50.906;6.172;2022-10-16T03:33:10;1.47;;;1.47;;
16037;SDS011;8123;50.906;6.172;2022-10-16T03:35:36;4.43;;;1.60;;
16037;SDS011;8123;50.906;6.172;2022-10-16T03:38:01;13.83;;;1.63;;
16037;SDS011;8123;50.906;6.172;2022-10-16T03:40:27;2.10;;;1.93;;
16037;SDS011;8123;50.906;6.172;2022-10-16T03:42:52;3.73;;;1.90;;
16037;SDS011;8123;50.906;6.172;2022-10-16T03:45:22;1.80;;;1.70;;
16037;SDS011;8123;50.906;6.172;2022-10-16T03:47:48;2.87;;;1.57;;
16037;SDS011;8123;50.906;6.172;2022-10-16T03:50:14;2.10;;;2.00;;
16037;SDS011;8123;50.906;6.172;2022-10-16T03:52:39;2.57;;;1.90;;
16037;SDS011;8123;50.906;6.172;2022-10-16T03:55:05;1.57;;;1.57;;
16037;SDS011;8123;50.906;6.172;2022-10-16T03:57:31;1.73;;;1.57;;
16037;SDS011;8123;50.906;6.172;2022-10-16T03:59:57;1.80;;;1.60;;
16037;SDS011;8123;50.906;6.172;2022-10-16T04:02:22;3.03;;;1.57;;
16037;SDS011;8123;50.906;6.172;2022-10-16T04:04:48;1.93;;;1.83;;
16037;SDS011;8123;50.906;6.172;2022-10-16T04:07:14;1.70;;;1.60;;
16037;SDS011;8123;50.906;6.172;2022-10-16T04:09:39;2.37;;;1.90;;
16037;SDS011;8123;50.906;6.172;2022-10-16T04:12:05;10.17;;;2.10;;
16037;SDS011;8123;50.906;6.172;2022-10-16T04:14:31;2.23;;;1.80;;
16037;SDS011;8123;50.906;6.172;2022-10-16T04:16:56;2.17;;;1.87;;
16037;SDS011;8123;50.906;6.172;2022-10-16T04:19:22;1.70;;;1.60;;
16037;SDS011;8123;50.906;6.172;2022-10-16T04:21:48;7.77;;;1.90;;
16037;SDS011;8123;50.906;6.172;2022-10-16T04:24:13;3.23;;;2.00;;
16037;SDS011;8123;50.906;6.172;2022-10-16T04:26:39;2.37;;;2.17;;
16037;SDS011;8123;50.906;6.172;2022-10-16T04:29:04;2.43;;;1.80;;
16037;SDS011;8123;50.906;6.172;2022-10-16T04:31:31;2.33;;;2.13;;
16037;SDS011;8123;50.906;6.172;2022-10-16T04:33:56;2.93;;;1.60;;
16037;SDS011;8123;50.906;6.172;2022-10-16T04:36:22;2.20;;;2.10;;
16037;SDS011;8123;50.906;6.172;2022-10-16T04:38:48;2.13;;;1.93;;
16037;SDS011;8123;50.906;6.172;2022-10-16T04:41:13;3.63;;;2.10;;
16037;SDS011;8123;50.906;6.172;2022-10-16T04:43:39;8.33;;;1.83;;
16037;SDS011;8123;50.906;6.172;2022-10-16T04:46:04;5.60;;;2.60;;
16037;SDS011;8123;50.906;6.172;2022-10-16T04:48:30;2.23;;;2.13;;
16037;SDS011;8123;50.906;6.172;2022-10-16T04:50:56;3.70;;;2.50;;
16037;SDS011;8123;50.906;6.172;2022-10-16T04:53:23;1.90;;;1.80;;
16037;SDS011;8123;50.906;6.172;2022-10-16T04:55:49;2.23;;;1.90;;
16037;SDS011;8123;50.906;6.172;2022-10-16T04:58:15;3.13;;;2.93;;
16037;SDS011;8123;50.906;6.172;2022-10-16T05:00:41;4.73;;;2.50;;
16037;SDS011;8123;50.906;6.172;2022-10-16T05:03:07;2.30;;;2.20;;
16037;SDS011;8123;50.906;6.172;2022-10-16T05:05:33;2.20;;;2.10;;
16037;SDS011;8123;50.906;6.172;2022-10-16T05:08:00;2.10;;;1.70;;
16037;SDS011;8123;50.906;6.172;2022-10-16T05:10:26;2.60;;;2.20;;
16037;SDS011;8123;50.906;6.172;2022-10-16T05:12:51;2.10;;;2.00;;
16037;SDS011;8123;50.906;6.172;2022-10-16T05:15:17;2.10;;;2.00;;
16037;SDS011;8123;50.906;6.172;2022-10-16T05:17:43;3.03;;;2.30;;
16037;SDS011;8123;50.906;6.172;2022-10-16T05:20:09;4.33;;;2.77;;
16037;SDS011;8123;50.906;6.172;2022-10-16T05:22:35;2.17;;;2.17;;
16037;SDS011;8123;50.906;6.172;2022-10-16T05:25:02;2.73;;;2.63;;
16037;SDS011;8123;50.906;6.172;2022-10-16T05:27:28;2.70;;;2.40;;
16037;SDS011;8123;50.906;6.172;2022-10-16T05:29:54;4.73;;;2.03;;
16037;SDS011;8123;50.906;6.172;2022-10-16T05:32:19;2.73;;;2.50;;
16037;SDS011;8123;50.906;6.172;2022-10-16T05:34:45;3.80;;;2.40;;
16037;SDS011;8123;50.906;6.172;2022-10-16T05:37:11;2.33;;;2.23;;
16037;SDS011;8123;50.906;6.172;2022-10-16T05:39:40;2.93;;;2.73;;
16037;SDS011;8123;50.906;6.172;2022-10-16T05:42:06;2.90;;;2.70;;
16037;SDS011;8123;50.906;6.172;2022-10-16T05:44:31;4.63;;;2.50;;
16037;SDS011;8123;50.906;6.172;2022-10-16T05:46:57;3.30;;;2.97;;
16037;SDS011;8123;50.906;6.172;2022-10-16T05:49:23;6.63;;;3.00;;
16037;SDS011;8123;50.906;6.172;2022-10-16T05:51:48;2.37;;;2.27;;
16037;SDS011;8123;50.906;6.172;2022-10-16T05:54:14;2.10;;;2.03;;
16037;SDS011;8123;50.906;6.172;2022-10-16T05:56:40;3.40;;;2.13;;
16037;SDS011;8123;50.906;6.172;2022-10-16T05:59:05;2.30;;;2.20;;
16037;SDS011;8123;50.906;6.172;2022-10-16T06:01:31;5.60;;;3.03;;
16037;SDS011;8123;50.906;6.172;2022-10-16T06:03:57;2.47;;;2.37;;
16037;SDS011;8123;50.906;6.172;2022-10-16T06:06:25;2.20;;;2.10;;
16037;SDS011;8123;50.906;6.172;2022-10-16T06:08:52;5.50;;;1.97;;
16037;SDS011;8123;50.906;6.172;2022-10-16T06:11:24;2.70;;;2.47;;
16037;SDS011;8123;50.906;6.172;2022-10-16T06:13:51;2.53;;;2.40;;
16037;SDS011;8123;50.906;6.172;2022-10-16T06:16:18;4.57;;;2.47;;
16037;SDS011;8123;50.906;6.172;2022-10-16T06:18:44;2.20;;;2.10;;
16037;SDS011;8123;50.906;6.172;2022-10-16T06:21:11;2.30;;;2.10;;
16037;SDS011;8123;50.906;6.172;2022-10-16T06:23:40;2.60;;;2.50;;
16037;SDS011;8123;50.906;6.172;2022-10-16T06:26:10;2.50;;;2.27;;
16037;SDS011;8123;50.906;6.172;2022-10-16T06:28:37;2.80;;;2.40;;
16037;SDS011;8123;50.906;6.172;2022-10-16T06:31:04;2.43;;;2.10;;
16037;SDS011;8123;50.906;6.172;2022-10-16T06:33:32;5.50;;;2.83;;
16037;SDS011;8123;50.906;6.172;2022-10-16T06:36:02;4.43;;;2.50;;
16037;SDS011;8123;50.906;6.172;2022-10-16T06:38:35;2.67;;;2.20;;
16037;SDS011;8123;50.906;6.172;2022-10-16T06:41:01;2.10;;;2.00;;
16037;SDS011;8123;50.906;6.172;2022-10-16T06:43:28;2.60;;;2.50;;
16037;SDS011;8123;50.906;6.172;2022-10-16T06:45:57;2.40;;;2.20;;
16037;SDS011;8123;50.906;6.172;2022-10-16T06:48:24;3.17;;;2.13;;
16037;SDS011;8123;50.906;6.172;2022-10-16T06:50:57;3.13;;;2.30;;
16037;SDS011;8123;50.906;6.172;2022-10-16T06:53:28;4.53;;;2.50;;
16037;SDS011;8123;50.906;6.172;2022-10-16T06:55:55;2.67;;;2.43;;
16037;SDS011;8123;50.906;6.172;2022-10-16T06:58:21;2.50;;;2.40;;
16037;SDS011;8123;50.906;6.172;2022-10-16T07:00:48;2.63;;;2.53;;
16037;SDS011;8123;50.906;6.172;2022-10-16T07:03:14;2.50;;;2.40;;
16037;SDS011;8123;50.906;6.172;2022-10-16T07:05:40;8.27;;;3.00;;
16037;SDS011;8123;50.906;6.172;2022-10-16T07:08:07;5.90;;;3.37;;
16037;SDS011;8123;50.906;6.172;2022-10-16T07:10:33;9.83;;;2.93;;
16037;SDS011;8123;50.906;6.172;2022-10-16T07:12:59;3.00;;;2.70;;
16037;SDS011;8123;50.906;6.172;2022-10-16T07:15:25;4.77;;;2.70;;
16037;SDS011;8123;50.906;6.172;2022-10-16T07:17:51;2.63;;;2.17;;
16037;SDS011;8123;50.906;6.172;2022-10-16T07:20:17;2.60;;;2.40;;
16037;SDS011;8123;50.906;6.172;2022-10-16T07:22:43;3.93;;;2.30;;
16037;SDS011;8123;50.906;6.172;2022-10-16T07:27:45;6.10;;;2.33;;
16037;SDS011;8123;50.906;6.172;2022-10-16T07:30:10;5.87;;;2.87;;
16037;SDS011;8123;50.906;6.172;2022-10-16T07:32:36;6.40;;;2.60;;
16037;SDS011;8123;50.906;6.172;2022-10-16T07:35:02;4.27;;;2.30;;
16037;SDS011;8123;50.906;6.172;2022-10-16T07:37:29;2.53;;;2.33;;
16037;SDS011;8123;50.906;6.172;2022-10-16T07:39:55;2.80;;;2.40;;
16037;SDS011;8123;50.906;6.172;2022-10-16T07:42:21;2.70;;;2.50;;
16037;SDS011;8123;50.906;6.172;2022-10-16T07:44:47;5.93;;;2.20;;
16037;SDS011;8123;50.906;6.172;2022-10-16T07:47:13;2.70;;;2.50;;
16037;SDS011;8123;50.906;6.172;2022-10-16T07:49:38;3.33;;;2.07;;
16037;SDS011;8123;50.906;6.172;2022-10-16T07:52:06;3.53;;;2.37;;
16037;SDS011;8123;50.906;6.172;2022-10-16T07:54:32;2.53;;;2.40;;
16037;SDS011;8123;50.906;6.172;2022-10-16T07:57:11;2.20;;;2.00;;
16037;SDS011;8123;50.906;6.172;2022-10-16T07:59:45;3.70;;;1.93;;
16037;SDS011;8123;50.906;6.172;2022-10-16T08:02:11;2.57;;;2.13;;
16037;SDS011;8123;50.906;6.172;2022-10-16T08:04:38;2.87;;;2.77;;
16037;SDS011;8123;50.906;6.172;2022-10-16T08:07:04;4.67;;;2.00;;
16037;SDS011;8123;50.906;6.172;2022-10-16T08:09:31;8.43;;;2.20;;
16037;SDS011;8123;50.906;6.172;2022-10-16T08:11:57;3.00;;;1.80;;
16037;SDS011;8123;50.906;6.172;2022-10-16T08:14:23;2.33;;;1.60;;
16037;SDS011;8123;50.906;6.172;2022-10-16T08:16:48;3.17;;;2.00;;
16037;SDS011;8123;50.906;6.172;2022-10-16T08:19:27;2.30;;;1.53;;
16037;SDS011;8123;50.906;6.172;2022-10-16T08:21:53;2.93;;;1.70;;
16037;SDS011;8123;50.906;6.172;2022-10-16T08:24:19;5.20;;;2.20;;
16037;SDS011;8123;50.906;6.172;2022-10-16T08:26:45;2.60;;;1.93;;
16037;SDS011;8123;50.906;6.172;2022-10-16T08:29:12;2.00;;;1.90;;
16037;SDS011;8123;50.906;6.172;2022-10-16T08:32:23;3.50;;;1.97;;
16037;SDS011;8123;50.906;6.172;2022-10-16T08:34:48;4.63;;;1.80;;
16037;SDS011;8123;50.906;6.172;2022-10-16T08:37:14;3.80;;;2.47;;
16037;SDS011;8123;50.906;6.172;2022-10-16T08:39:40;4.77;;;1.87;;
16037;SDS011;8123;50.906;6.172;2022-10-16T08:47:57;2.97;;;2.13;;
16037;SDS011;8123;50.906;6.172;2022-10-16T08:50:36;2.70;;;1.63;;
16037;SDS011;8123;50.906;6.172;2022-10-16T08:53:04;1.60;;;1.50;;
16037;SDS011;8123;50.906;6.172;2022-10-16T08:55:33;6.53;;;1.70;;
16037;SDS011;8123;50.906;6.172;2022-10-16T08:58:13;1.70;;;1.60;;
16037;SDS011;8123;50.906;6.172;2022-10-16T09:00:41;2.20;;;1.70;;
16037;SDS011;8123;50.906;6.172;2022-10-16T09:06:29;4.20;;;1.93;;
16037;SDS011;8123;50.906;6.172;2022-10-16T09:11:45;1.57;;;1.40;;
16037;SDS011;8123;50.906;6.172;2022-10-16T09:22:48;4.10;;;1.47;;
16037;SDS011;8123;50.906;6.172;2022-10-16T09:25:17;3.47;;;1.40;;
16037;SDS011;8123;50.906;6.172;2022-10-16T09:27:47;1.47;;;1.37;;
16037;SDS011;8123;50.906;6.172;2022-10-16T09:30:16;1.80;;;1.50;;
16037;SDS011;8123;50.906;6.172;2022-10-16T09:32:44;3.13;;;1.60;;
16037;SDS011;8123;50.906;6.172;2022-10-16T09:35:16;1.50;;;1.50;;
16037;SDS011;8123;50.906;6.172;2022-10-16T09:37:47;2.53;;;1.30;;
16037;SDS011;8123;50.906;6.172;2022-10-16T09:42:50;2.03;;;1.63;;
16037;SDS011;8123;50.906;6.172;2022-10-16T09:45:22;1.97;;;1.13;;
16037;SDS011;8123;50.906;6.172;2022-10-16T09:47:49;3.27;;;1.30;;
16037;SDS011;8123;50.906;6.172;2022-10-16T09:50:20;3.80;;;1.40;;
16037;SDS011;8123;50.906;6.172;2022-10-16T09:52:50;6.53;;;1.50;;
16037;SDS011;8123;50.906;6.172;2022-10-16T09:55:17;1.30;;;1.30;;
16037;SDS011;8123;50.906;6.172;2022-10-16T09:57:50;2.60;;;1.40;;
16037;SDS011;8123;50.906;6.172;2022-10-16T10:00:18;5.90;;;1.40;;
16037;SDS011;8123;50.906;6.172;2022-10-16T10:02:44;4.53;;;1.37;;
16037;SDS011;8123;50.906;6.172;2022-10-16T10:05:27;2.80;;;1.17;;
16037;SDS011;8123;50.906;6.172;2022-10-16T10:07:55;4.00;;;1.30;;
16037;SDS011;8123;50.906;6.172;2022-10-16T10:10:30;2.10;;;1.30;;
16037;SDS011;8123;50.906;6.172;2022-10-16T10:12:58;6.03;;;1.30;;
16037;SDS011;8123;50.906;6.172;2022-10-16T10:15:24;2.03;;;1.50;;
16037;SDS011;8123;50.906;6.172;2022-10-16T10:17:53;8.70;;;1.60;;
16037;SDS011;8123;50.906;6.172;2022-10-16T10:22:57;6.20;;;4.37;;
16037;SDS011;8123;50.906;6.172;2022-10-16T10:38:51;1.20;;;1.10;;
16037;SDS011;8123;50.906;6.172;2022-10-16T10:50:56;2.20;;;1.27;;
16037;SDS011;8123;50.906;6.172;2022-10-16T10:53:46;1.30;;;1.20;;
16037;SDS011;8123;50.906;6.172;2022-10-16T11:02:25;5.00;;;1.20;;
16037;SDS011;8123;50.906;6.172;2022-10-16T11:05:14;4.00;;;1.73;;
16037;SDS011;8123;50.906;6.172;2022-10-16T11:07:49;2.60;;;1.10;;
16037;SDS011;8123;50.906;6.172;2022-10-16T11:10:28;2.17;;;1.10;;
16037;SDS011;8123;50.906;6.172;2022-10-16T11:13:10;1.20;;;1.20;;
16037;SDS011;8123;50.906;6.172;2022-10-16T11:15:59;7.27;;;1.43;;
16037;SDS011;8123;50.906;6.172;2022-10-16T11:19:08;3.63;;;1.30;;
16037;SDS011;8123;50.906;6.172;2022-10-16T11:21:28;3.73;;;1.47;;
16037;SDS011;8123;50.906;6.172;2022-10-16T11:24:00;1.30;;;1.20;;
16037;SDS011;8123;50.906;6.172;2022-10-16T11:26:33;1.57;;;1.47;;
16037;SDS011;8123;50.906;6.172;2022-10-16T11:29:04;2.23;;;1.40;;
16037;SDS011;8123;50.906;6.172;2022-10-16T11:31:45;1.03;;;1.03;;
16037;SDS011;8123;50.906;6.172;2022-10-16T11:37:18;1.50;;;1.40;;
16037;SDS011;8123;50.906;6.172;2022-10-16T11:39:48;1.43;;;1.20;;
16037;SDS011;8123;50.906;6.172;2022-10-16T11:42:37;7.67;;;1.20;;
16037;SDS011;8123;50.906;6.172;2022-10-16T11:47:37;2.00;;;1.20;;
16037;SDS011;8123;50.906;6.172;2022-10-16T11:50:29;3.33;;;1.37;;
16037;SDS011;8123;50.906;6.172;2022-10-16T11:55:42;1.67;;;1.07;;
16037;SDS011;8123;50.906;6.172;2022-10-16T11:58:19;1.13;;;1.03;;
16037;SDS011;8123;50.906;6.172;2022-10-16T12:07:10;0.83;;;0.83;;
16037;SDS011;8123;50.906;6.172;2022-10-16T12:09:40;0.97;;;0.90;;
16037;SDS011;8123;50.906;6.172;2022-10-16T12:15:02;1.20;;;0.90;;
16037;SDS011;8123;50.906;6.172;2022-10-16T12:17:44;2.97;;;1.27;;
16037;SDS011;8123;50.906;6.172;2022-10-16T12:22:51;1.77;;;1.00;;
16037;SDS011;8123;50.906;6.172;2022-10-16T12:25:24;4.00;;;1.30;;
16037;SDS011;8123;50.906;6.172;2022-10-16T12:27:54;1.80;;;1.07;;
16037;SDS011;8123;50.906;6.172;2022-10-16T12:30:22;1.27;;;0.90;;
16037;SDS011;8123;50.906;6.172;2022-10-16T12:32:53;5.07;;;2.03;;
16037;SDS011;8123;50.906;6.172;2022-10-16T12:35:21;4.63;;;1.47;;
16037;SDS011;8123;50.906;6.172;2022-10-16T12:37:50;3.30;;;1.43;;
16037;SDS011;8123;50.906;6.172;2022-10-16T12:42:48;2.10;;;1.47;;
16037;SDS011;8123;50.906;6.172;2022-10-16T12:47:50;4.33;;;2.30;;
16037;SDS011;8123;50.906;6.172;2022-10-16T12:50:29;2.23;;;1.57;;
16037;SDS011;8123;50.906;6.172;2022-10-16T12:53:01;3.33;;;1.50;;
16037;SDS011;8123;50.906;6.172;2022-10-16T12:55:31;2.90;;;2.03;;
16037;SDS011;8123;50.906;6.172;2022-10-16T13:00:50;4.53;;;1.50;;
16037;SDS011;8123;50.906;6.172;2022-10-16T13:03:31;1.30;;;1.20;;
16037;SDS011;8123;50.906;6.172;2022-10-16T13:06:22;1.03;;;0.97;;
16037;SDS011;8123;50.906;6.172;2022-10-16T13:11:55;1.47;;;1.20;;
16037;SDS011;8123;50.906;6.172;2022-10-16T13:17:25;2.67;;;1.20;;
16037;SDS011;8123;50.906;6.172;2022-10-16T13:25:32;4.40;;;1.20;;
16037;SDS011;8123;50.906;6.172;2022-10-16T13:30:38;2.93;;;1.13;;
16037;SDS011;8123;50.906;6.172;2022-10-16T13:33:17;2.60;;;1.10;;
16037;SDS011;8123;50.906;6.172;2022-10-16T13:36:03;1.57;;;0.90;;
16037;SDS011;8123;50.906;6.172;2022-10-16T13:38:30;1.90;;;1.37;;
16037;SDS011;8123;50.906;6.172;2022-10-16T13:41:02;2.40;;;1.07;;
16037;SDS011;8123;50.906;6.172;2022-10-16T13:43:39;1.20;;;1.00;;
16037;SDS011;8123;50.906;6.172;2022-10-16T13:46:24;1.37;;;1.27;;
16037;SDS011;8123;50.906;6.172;2022-10-16T13:49:02;2.10;;;1.10;;
16037;SDS011;8123;50.906;6.172;2022-10-16T13:51:30;2.63;;;1.10;;
16037;SDS011;8123;50.906;6.172;2022-10-16T13:53:57;7.00;;;1.03;;
16037;SDS011;8123;50.906;6.172;2022-10-16T13:56:27;2.80;;;1.10;;
16037;SDS011;8123;50.906;6.172;2022-10-16T13:59:01;3.50;;;1.63;;
16037;SDS011;8123;50.906;6.172;2022-10-16T14:01:29;1.87;;;1.00;;
16037;SDS011;8123;50.906;6.172;2022-10-16T14:04:03;1.70;;;1.40;;
16037;SDS011;8123;50.906;6.172;2022-10-16T14:06:30;5.03;;;1.83;;
16037;SDS011;8123;50.906;6.172;2022-10-16T14:09:07;3.73;;;1.60;;
16037;SDS011;8123;50.906;6.172;2022-10-16T14:11:49;11.40;;;5.90;;
16037;SDS011;8123;50.906;6.172;2022-10-16T14:14:18;7.37;;;4.97;;
16037;SDS011;8123;50.906;6.172;2022-10-16T14:16:44;4.50;;;1.10;;
16037;SDS011;8123;50.906;6.172;2022-10-16T14:21:50;1.70;;;1.60;;
16037;SDS011;8123;50.906;6.172;2022-10-16T14:26:54;2.73;;;1.50;;
16037;SDS011;8123;50.906;6.172;2022-10-16T14:29:21;26.53;;;2.30;;
16037;SDS011;8123;50.906;6.172;2022-10-16T14:31:58;1.97;;;1.40;;
16037;SDS011;8123;50.906;6.172;2022-10-16T14:37:41;1.73;;;1.20;;
16037;SDS011;8123;50.906;6.172;2022-10-16T14:39:50;2.20;;;1.07;;
16037;SDS011;8123;50.906;6.172;2022-10-16T14:42:17;5.70;;;1.20;;
16037;SDS011;8123;50.906;6.172;2022-10-16T14:44:45;2.50;;;1.10;;
16037;SDS011;8123;50.906;6.172;2022-10-16T14:47:16;2.87;;;1.50;;
16037;SDS011;8123;50.906;6.172;2022-10-16T14:49:50;7.50;;;1.50;;
16037;SDS011;8123;50.906;6.172;2022-10-16T14:52:16;1.43;;;1.33;;
16037;SDS011;8123;50.906;6.172;2022-10-16T14:54:42;2.77;;;1.23;;
16037;SDS011;8123;50.906;6.172;2022-10-16T14:57:22;1.57;;;1.37;;
16037;SDS011;8123;50.906;6.172;2022-10-16T14:59:51;3.67;;;1.60;;
16037;SDS011;8123;50.906;6.172;2022-10-16T15:04:47;3.57;;;2.60;;
16037;SDS011;8123;50.906;6.172;2022-10-16T15:07:13;4.17;;;1.40;;
16037;SDS011;8123;50.906;6.172;2022-10-16T15:09:39;2.73;;;1.23;;
16037;SDS011;8123;50.906;6.172;2022-10-16T15:12:04;7.50;;;1.90;;
16037;SDS011;8123;50.906;6.172;2022-10-16T15:14:30;1.53;;;1.37;;
16037;SDS011;8123;50.906;6.172;2022-10-16T15:16:56;3.23;;;1.87;;
16037;SDS011;8123;50.906;6.172;2022-10-16T15:19:21;12.77;;;2.20;;
16037;SDS011;8123;50.906;6.172;2022-10-16T15:21:47;5.57;;;2.00;;
16037;SDS011;8123;50.906;6.172;2022-10-16T15:24:14;5.83;;;1.40;;
16037;SDS011;8123;50.906;6.172;2022-10-16T15:26:40;4.50;;;1.53;;
16037;SDS011;8123;50.906;6.172;2022-10-16T15:29:06;2.53;;;1.53;;
16037;SDS011;8123;50.906;6.172;2022-10-16T15:31:32;6.67;;;2.00;;
16037;SDS011;8123;50.906;6.172;2022-10-16T15:33:58;2.47;;;1.63;;
16037;SDS011;8123;50.906;6.172;2022-10-16T15:36:29;3.97;;;2.10;;
16037;SDS011;8123;50.906;6.172;2022-10-16T15:38:58;2.53;;;1.60;;
16037;SDS011;8123;50.906;6.172;2022-10-16T15:41:24;3.50;;;2.10;;
16037;SDS011;8123;50.906;6.172;2022-10-16T15:43:54;2.80;;;1.67;;
16037;SDS011;8123;50.906;6.172;2022-10-16T15:46:20;4.30;;;2.20;;
16037;SDS011;8123;50.906;6.172;2022-10-16T15:48:48;5.47;;;2.10;;
16037;SDS011;8123;50.906;6.172;2022-10-16T15:51:14;2.10;;;1.73;;
16037;SDS011;8123;50.906;6.172;2022-10-16T15:53:40;4.47;;;1.87;;
16037;SDS011;8123;50.906;6.172;2022-10-16T15:56:07;8.17;;;1.77;;
16037;SDS011;8123;50.906;6.172;2022-10-16T15:58:34;5.07;;;1.70;;
16037;SDS011;8123;50.906;6.172;2022-10-16T16:01:00;6.40;;;3.17;;
16037;SDS011;8123;50.906;6.172;2022-10-16T16:03:28;6.13;;;2.10;;
16037;SDS011;8123;50.906;6.172;2022-10-16T16:05:55;2.50;;;1.70;;
16037;SDS011;8123;50.906;6.172;2022-10-16T16:08:20;4.70;;;2.00;;
16037;SDS011;8123;50.906;6.172;2022-10-16T16:10:56;5.60;;;1.60;;
16037;SDS011;8123;50.906;6.172;2022-10-16T16:13:32;10.27;;;2.00;;
16037;SDS011;8123;50.906;6.172;2022-10-16T16:15:59;5.40;;;2.00;;
16037;SDS011;8123;50.906;6.172;2022-10-16T16:18:25;3.17;;;1.60;;
16037;SDS011;8123;50.906;6.172;2022-10-16T16:20:53;2.33;;;2.07;;
16037;SDS011;8123;50.906;6.172;2022-10-16T16:23:20;6.03;;;2.07;;
16037;SDS011;8123;50.906;6.172;2022-10-16T16:26:01;4.67;;;1.70;;
16037;SDS011;8123;50.906;6.172;2022-10-16T16:28:28;2.90;;;1.70;;
16037;SDS011;8123;50.906;6.172;2022-10-16T16:30:53;14.03;;;1.70;;
16037;SDS011;8123;50.906;6.172;2022-10-16T16:33:19;2.80;;;1.37;;
16037;SDS011;8123;50.906;6.172;2022-10-16T16:35:45;5.63;;;2.20;;
16037;SDS011;8123;50.906;6.172;2022-10-16T16:38:10;6.00;;;2.10;;
16037;SDS011;8123;50.906;6.172;2022-10-16T16:40:36;19.10;;;2.50;;
16037;SDS011;8123;50.906;6.172;2022-10-16T16:43:02;3.97;;;2.40;;
16037;SDS011;8123;50.906;6.172;2022-10-16T16:45:29;9.47;;;2.30;;
16037;SDS011;8123;50.906;6.172;2022-10-16T16:47:54;8.70;;;2.73;;
16037;SDS011;8123;50.906;6.172;2022-10-16T16:50:20;8.73;;;2.47;;
16037;SDS011;8123;50.906;6.172;2022-10-16T16:52:45;5.70;;;2.53;;
16037;SDS011;8123;50.906;6.172;2022-10-16T16:55:28;11.67;;;3.00;;
16037;SDS011;8123;50.906;6.172;2022-10-16T16:57:54;16.80;;;3.13;;
16037;SDS011;8123;50.906;6.172;2022-10-16T17:00:21;19.33;;;3.33;;
16037;SDS011;8123;50.906;6.172;2022-10-16T17:02:50;17.63;;;3.80;;
16037;SDS011;8123;50.906;6.172;2022-10-16T17:05:16;2.70;;;2.47;;
16037;SDS011;8123;50.906;6.172;2022-10-16T17:07:42;8.77;;;4.03;;
16037;SDS011;8123;50.906;6.172;2022-10-16T17:10:08;5.90;;;2.97;;
16037;SDS011;8123;50.906;6.172;2022-10-16T17:12:34;6.83;;;2.60;;
16037;SDS011;8123;50.906;6.172;2022-10-16T17:15:04;11.30;;;3.73;;
16037;SDS011;8123;50.906;6.172;2022-10-16T17:17:30;9.13;;;2.80;;